Time;durP1;ratioP1;P1;durP2;ratioP2;P2;SDS_P1;SDS_P2;PMS_P1;PMS_P2;Temp;Humidity;BMP_temperature;BMP_pressure;BME280_temperature;BME280_humidity;BME280_pressure;Samples;Min_cycle;Max_cycle;Signal;HPM_P1;HPM_P2
2022/02/27 00:01:55;;;;;;;16.47;3.00;;;;;;;-145.69;100.00;73938.28;5079310;28;20234;-77
2022/02/27 00:04:22;;;;;;;13.60;2.40;;;;;;;-145.69;100.00;73932.31;5072922;28;20206;-77
2022/02/27 00:06:55;;;;;;;14.60;2.60;;;;;;;-145.69;100.00;73922.34;5072616;28;20195;-77
2022/02/27 00:09:22;;;;;;;5.13;2.07;;;;;;;-145.69;100.00;73896.47;5072799;28;20195;-76
2022/02/27 00:11:49;;;;;;;10.07;2.60;;;;;;;-145.69;100.00;73908.41;5080462;28;20679;-77
2022/02/27 00:14:19;;;;;;;10.90;3.03;;;;;;;-145.69;100.00;73894.47;5092806;28;20233;-77
2022/02/27 00:16:47;;;;;;;11.37;2.47;;;;;;;-145.69;100.00;73906.44;5092664;28;20233;-77
2022/02/27 00:19:20;;;;;;;11.03;2.07;;;;;;;-145.69;100.00;73896.47;5093014;28;20205;-77
2022/02/27 00:21:52;;;;;;;10.47;2.17;;;;;;;-145.69;100.00;73922.34;5092697;28;20233;-77
2022/02/27 00:24:20;;;;;;;8.97;2.57;;;;;;;-145.69;100.00;73924.34;5092789;28;20687;-78
2022/02/27 00:26:48;;;;;;;11.23;2.20;;;;;;;-145.69;100.00;73910.41;5090660;28;20202;-77
2022/02/27 00:29:19;;;;;;;8.47;2.50;;;;;;;-145.69;100.00;73938.28;5092128;28;20296;-77
2022/02/27 00:31:48;;;;;;;13.33;2.77;;;;;;;-145.69;100.00;73922.34;5092607;28;20206;-77
2022/02/27 00:34:18;;;;;;;16.07;2.70;;;;;;;-145.69;100.00;73926.34;5092684;28;20194;-77
2022/02/27 00:36:49;;;;;;;12.83;1.93;;;;;;;-145.69;100.00;73926.34;5092679;28;20312;-77
2022/02/27 00:39:24;;;;;;;9.13;2.50;;;;;;;-145.69;100.00;73926.34;5092546;28;20210;-77
2022/02/27 00:41:51;;;;;;;10.20;2.43;;;;;;;-145.69;100.00;73922.34;5092772;28;20237;-78
2022/02/27 00:44:23;;;;;;;11.27;3.23;;;;;;;-145.69;100.00;73918.38;5092954;28;20213;-77
2022/02/27 00:46:50;;;;;;;15.10;2.47;;;;;;;-145.69;100.00;73916.38;5092754;28;20202;-77
2022/02/27 00:49:24;;;;;;;12.17;3.03;;;;;;;-145.69;100.00;73924.34;5092368;28;20649;-77
2022/02/27 00:51:50;;;;;;;9.87;2.90;;;;;;;-145.69;100.00;73912.41;5092492;28;20197;-76
2022/02/27 00:54:22;;;;;;;11.73;2.90;;;;;;;-145.69;100.00;73914.38;5092369;28;20202;-76
2022/02/27 00:56:51;;;;;;;6.57;2.60;;;;;;;-145.69;100.00;73924.34;5092618;28;20205;-77
2022/02/27 00:59:21;;;;;;;7.87;2.60;;;;;;;-145.69;100.00;73926.34;5092362;28;20643;-77
2022/02/27 01:01:48;;;;;;;11.13;3.13;;;;;;;-145.69;100.00;73914.38;5092367;28;20712;-76
2022/02/27 01:04:16;;;;;;;11.97;2.93;;;;;;;-145.69;100.00;73904.44;5092240;28;20213;-77
2022/02/27 01:06:47;;;;;;;21.67;3.87;;;;;;;-145.69;100.00;73894.47;5092550;28;20296;-77
2022/02/27 01:09:27;;;;;;;8.10;2.77;;;;;;;-145.69;100.00;73902.44;5092460;28;20233;-76
2022/02/27 01:11:55;;;;;;;18.23;2.93;;;;;;;-145.69;100.00;73902.44;5092475;28;20210;-77
2022/02/27 01:14:22;;;;;;;10.47;3.17;;;;;;;-145.69;100.00;73904.44;5111076;28;20202;-77
2022/02/27 01:16:50;;;;;;;11.03;3.20;;;;;;;-145.69;100.00;73910.41;5112467;28;20208;-77
2022/02/27 01:19:16;;;;;;;16.73;3.20;;;;;;;-145.69;100.00;73912.41;5112539;28;20198;-77
2022/02/27 01:21:46;;;;;;;12.30;3.20;;;;;;;-145.69;100.00;73908.41;5112720;28;20231;-77
2022/02/27 01:24:16;;;;;;;13.10;3.80;;;;;;;-145.69;100.00;73904.44;5112754;28;20591;-76
2022/02/27 01:26:43;;;;;;;9.57;3.17;;;;;;;-145.69;100.00;73898.47;5116405;28;20212;-77
2022/02/27 01:29:13;;;;;;;15.87;3.57;;;;;;;-145.69;100.00;73898.47;5116009;28;20193;-77
2022/02/27 01:31:40;;;;;;;12.10;3.40;;;;;;;-145.69;100.00;73910.41;5116148;28;20582;-77
2022/02/27 01:34:06;;;;;;;16.90;3.30;;;;;;;-145.69;100.00;73906.44;5116375;28;20202;-77
2022/02/27 01:36:35;;;;;;;14.63;3.90;;;;;;;-145.69;100.00;73890.50;5116636;28;20290;-77
2022/02/27 01:39:03;;;;;;;11.17;3.67;;;;;;;-145.69;100.00;73908.41;5116302;28;20201;-77
2022/02/27 01:41:33;;;;;;;15.23;3.23;;;;;;;-145.69;100.00;73898.47;5116170;28;20316;-77
2022/02/27 01:44:04;;;;;;;17.90;3.83;;;;;;;-145.69;100.00;73906.44;5100152;28;20281;-78
2022/02/27 01:46:33;;;;;;;8.53;2.67;;;;;;;-145.69;100.00;73906.44;5095895;28;20227;-77
2022/02/27 01:49:04;;;;;;;10.80;3.27;;;;;;;-145.69;100.00;73908.41;5095586;28;20202;-77
2022/02/27 01:51:33;;;;;;;13.13;3.80;;;;;;;-145.69;100.00;73902.44;5093546;28;20290;-77
2022/02/27 01:54:03;;;;;;;10.33;3.50;;;;;;;-145.69;100.00;73892.50;5075370;28;20203;-77
2022/02/27 01:56:38;;;;;;;7.30;2.87;;;;;;;-145.69;100.00;73908.41;5075029;28;20286;-77
2022/02/27 01:59:06;;;;;;;13.80;3.37;;;;;;;-145.69;100.00;73922.34;5075011;28;20202;-77
2022/02/27 02:01:37;;;;;;;10.50;3.00;;;;;;;-145.69;100.00;73916.38;5075151;28;20227;-77
2022/02/27 02:04:04;;;;;;;14.93;3.40;;;;;;;-145.69;100.00;73926.34;5075186;28;20232;-77
2022/02/27 02:06:35;;;;;;;6.83;2.90;;;;;;;-145.69;100.00;73920.38;5074821;28;20205;-77
2022/02/27 02:09:05;;;;;;;8.50;2.70;;;;;;;-145.69;100.00;73904.44;5074847;28;20577;-77
2022/02/27 02:11:31;;;;;;;12.20;3.20;;;;;;;-145.69;100.00;73910.41;5075178;28;20199;-77
2022/02/27 02:13:58;;;;;;;19.27;3.10;;;;;;;-145.69;100.00;73910.41;5110462;28;20652;-77
2022/02/27 02:16:25;;;;;;;15.03;2.83;;;;;;;-145.69;100.00;73914.38;5115548;28;20205;-77
2022/02/27 02:18:56;;;;;;;11.40;2.77;;;;;;;-145.69;100.00;73908.41;5115131;28;20235;-77
2022/02/27 02:21:26;;;;;;;11.67;2.87;;;;;;;-145.69;100.00;73914.38;5114834;28;20684;-77
2022/02/27 02:23:53;;;;;;;13.57;3.30;;;;;;;-145.69;100.00;73894.47;5115502;28;20272;-78
2022/02/27 02:26:25;;;;;;;13.50;2.87;;;;;;;-145.69;100.00;73878.56;5115426;28;20525;-77
2022/02/27 02:28:54;;;;;;;11.83;2.73;;;;;;;-145.69;100.00;73880.53;5113555;28;20215;-77
2022/02/27 02:31:24;;;;;;;11.13;2.93;;;;;;;-145.69;100.00;73888.50;5115223;28;20284;-76
2022/02/27 02:34:02;;;;;;;6.57;2.27;;;;;;;-145.69;100.00;73886.50;5114888;28;20197;-77
2022/02/27 02:36:30;;;;;;;11.03;3.07;;;;;;;-145.69;100.00;73902.44;5112572;28;20202;-77
2022/02/27 02:39:00;;;;;;;13.20;3.20;;;;;;;-145.69;100.00;73898.47;5094599;28;20205;-77
2022/02/27 02:41:27;;;;;;;7.07;2.20;;;;;;;-145.69;100.00;73906.44;5094543;28;20225;-77
2022/02/27 02:43:56;;;;;;;12.63;2.83;;;;;;;-145.69;100.00;73908.41;5103446;28;20197;-77
2022/02/27 02:46:22;;;;;;;5.40;2.23;;;;;;;-145.69;100.00;73916.38;5114817;28;20204;-77
2022/02/27 02:48:52;;;;;;;15.63;3.30;;;;;;;-145.69;100.00;73912.41;5114748;28;20646;-77
2022/02/27 02:51:21;;;;;;;8.67;2.67;;;;;;;-145.69;100.00;73912.41;5114861;28;20302;-77
2022/02/27 02:53:51;;;;;;;10.70;2.97;;;;;;;-145.69;100.00;73920.38;5114842;28;20201;-77
2022/02/27 02:56:18;;;;;;;15.57;2.73;;;;;;;-145.69;100.00;73916.38;5114259;28;20673;-77
2022/02/27 02:58:45;;;;;;;11.90;2.73;;;;;;;-145.69;100.00;73902.44;5114646;28;20198;-77
2022/02/27 03:01:14;;;;;;;13.17;2.63;;;;;;;-145.69;100.00;73898.47;5114213;28;20193;-77
2022/02/27 03:03:43;;;;;;;11.67;2.70;;;;;;;-145.69;100.00;73890.50;5112558;28;20655;-77
2022/02/27 03:06:10;;;;;;;7.57;2.57;;;;;;;-145.69;100.00;73896.47;5114555;28;20205;-77
2022/02/27 03:08:37;;;;;;;8.70;3.33;;;;;;;-145.69;100.00;73888.50;5114404;28;20303;-76
2022/02/27 03:11:05;;;;;;;14.30;2.57;;;;;;;-145.69;100.00;73898.47;5114409;28;20212;-77
2022/02/27 03:13:32;;;;;;;16.60;2.63;;;;;;;-145.69;100.00;73898.47;5109237;28;20536;-77
2022/02/27 03:15:58;;;;;;;8.73;2.37;;;;;;;-145.69;100.00;73894.47;5093993;28;20209;-76
2022/02/27 03:18:25;;;;;;;7.47;2.37;;;;;;;-145.69;100.00;73902.44;5093638;28;20249;-77
2022/02/27 03:20:52;;;;;;;5.67;2.40;;;;;;;-145.69;100.00;73902.44;5094034;28;20203;-77
2022/02/27 03:23:18;;;;;;;7.33;2.30;;;;;;;-145.69;100.00;73904.44;5093619;28;20603;-77
2022/02/27 03:25:45;;;;;;;8.03;3.33;;;;;;;-145.69;100.00;73910.41;5093699;28;20198;-76
2022/02/27 03:28:12;;;;;;;8.93;2.07;;;;;;;-145.69;100.00;73918.38;5093424;28;20198;-77
2022/02/27 03:30:39;;;;;;;12.47;2.63;;;;;;;-145.69;100.00;73908.41;5093845;28;20234;-76
2022/02/27 03:33:06;;;;;;;12.23;2.70;;;;;;;-145.69;100.00;73918.38;5093673;28;20198;-77
2022/02/27 03:35:38;;;;;;;12.00;2.47;;;;;;;-145.69;100.00;73932.31;5093660;28;20557;-77
2022/02/27 03:38:10;;;;;;;11.20;2.20;;;;;;;-145.69;100.00;73938.28;5093324;28;20568;-76
2022/02/27 03:40:36;;;;;;;8.57;2.47;;;;;;;-145.69;100.00;73924.34;5093299;28;20194;-78
2022/02/27 03:43:03;;;;;;;11.80;2.77;;;;;;;-145.69;100.00;73916.38;5093291;28;20264;-76
2022/02/27 03:45:36;;;;;;;11.03;2.43;;;;;;;-145.69;100.00;73912.41;5112702;28;20196;-77
2022/02/27 03:48:03;;;;;;;11.83;2.57;;;;;;;-145.69;100.00;73930.31;5113501;28;20229;-77
2022/02/27 03:50:30;;;;;;;9.37;2.93;;;;;;;-145.69;100.00;73938.28;5113228;28;20648;-77
2022/02/27 03:52:58;;;;;;;11.73;2.43;;;;;;;-145.69;100.00;73942.25;5113502;27;20652;-77
2022/02/27 03:55:27;;;;;;;11.53;2.93;;;;;;;-145.69;100.00;73932.31;5113424;28;20204;-77
2022/02/27 03:57:53;;;;;;;10.07;3.80;;;;;;;-145.69;100.00;73926.34;5082156;28;20535;-77
2022/02/27 04:00:20;;;;;;;8.47;2.60;;;;;;;-145.69;100.00;73934.31;5072765;28;20207;-77
2022/02/27 04:02:48;;;;;;;8.03;2.77;;;;;;;-145.69;100.00;73902.44;5072676;28;20326;-77
2022/02/27 04:05:16;;;;;;;10.37;2.67;;;;;;;-145.69;100.00;73916.38;5072416;28;20213;-77
2022/02/27 04:07:43;;;;;;;7.90;2.93;;;;;;;-145.69;100.00;73894.47;5072873;28;20570;-77
2022/02/27 04:10:10;;;;;;;9.40;2.67;;;;;;;-145.69;100.00;73914.38;5072707;28;20199;-77
2022/02/27 04:12:37;;;;;;;5.13;2.83;;;;;;;-145.69;100.00;73908.41;5072905;28;20272;-77
2022/02/27 04:15:05;;;;;;;11.03;3.10;;;;;;;-145.69;100.00;73910.41;5104430;28;20208;-77
2022/02/27 04:17:32;;;;;;;14.47;3.73;;;;;;;-145.69;100.00;73922.34;5113206;28;20312;-77
2022/02/27 04:20:02;;;;;;;11.67;3.27;;;;;;;-145.69;100.00;73922.34;5113307;28;20563;-77
2022/02/27 04:22:29;;;;;;;12.27;3.07;;;;;;;-145.69;100.00;73938.28;5113017;28;20250;-77
2022/02/27 04:24:56;;;;;;;15.33;4.10;;;;;;;-145.69;100.00;73928.31;5113144;28;20583;-77
2022/02/27 04:27:25;;;;;;;13.27;3.40;;;;;;;-145.69;100.00;73934.31;5113260;28;20212;-77
2022/02/27 04:29:51;;;;;;;11.50;3.33;;;;;;;-145.69;100.00;73934.31;5113208;28;20244;-77
2022/02/27 04:32:20;;;;;;;14.90;3.47;;;;;;;-145.69;100.00;73924.34;5112979;28;20678;-77
2022/02/27 04:34:46;;;;;;;15.03;3.60;;;;;;;-145.69;100.00;73918.38;5112995;28;20679;-77
2022/02/27 04:37:14;;;;;;;17.20;3.67;;;;;;;-145.69;100.00;73922.34;5113082;28;20231;-77
2022/02/27 04:39:41;;;;;;;16.80;4.43;;;;;;;-145.69;100.00;73936.28;5113141;28;20221;-77
2022/02/27 04:42:08;;;;;;;9.37;3.60;;;;;;;-145.69;100.00;73932.31;5112862;28;20229;-77
2022/02/27 04:44:34;;;;;;;13.47;3.80;;;;;;;-145.69;100.00;73942.25;5098834;28;20197;-77
2022/02/27 04:47:01;;;;;;;19.57;3.83;;;;;;;-145.69;100.00;73940.28;5092685;28;20202;-77
2022/02/27 04:49:29;;;;;;;14.23;3.80;;;;;;;-145.69;100.00;73960.19;5092408;28;20692;-77
2022/02/27 04:51:58;;;;;;;10.30;3.80;;;;;;;-145.69;100.00;73962.19;5092788;28;20568;-77
2022/02/27 04:54:26;;;;;;;18.37;3.60;;;;;;;-145.69;100.00;73952.22;5092532;28;20208;-77
2022/02/27 04:56:55;;;;;;;10.97;3.90;;;;;;;-145.69;100.00;73960.19;5092663;28;20206;-77
2022/02/27 04:59:22;;;;;;;10.47;3.70;;;;;;;-145.69;100.00;73944.25;5092829;28;20198;-77
2022/02/27 05:01:49;;;;;;;6.97;3.70;;;;;;;-145.69;100.00;73962.19;5096247;28;20213;-77
2022/02/27 05:04:16;;;;;;;17.93;4.07;;;;;;;-145.69;100.00;73944.25;5096351;28;20711;-77
2022/02/27 05:06:42;;;;;;;13.73;4.13;;;;;;;-145.69;100.00;73922.34;5096422;28;20233;-77
2022/02/27 05:09:16;;;;;;;18.20;4.33;;;;;;;-145.69;100.00;73938.28;5096340;28;20201;-78
2022/02/27 05:11:44;;;;;;;10.07;3.07;;;;;;;-145.69;100.00;73926.34;5095479;28;20653;-77
2022/02/27 05:14:14;;;;;;;13.30;3.63;;;;;;;-145.69;100.00;73932.31;5105862;28;20653;-78
2022/02/27 05:16:42;;;;;;;7.43;3.87;;;;;;;-145.69;100.00;73918.38;5116239;28;20205;-77
2022/02/27 05:19:09;;;;;;;11.77;3.63;;;;;;;-145.69;100.00;73932.31;5116566;28;20201;-78
2022/02/27 05:21:36;;;;;;;13.97;3.60;;;;;;;-145.69;100.00;73924.34;5116557;28;20288;-77
2022/02/27 05:24:05;;;;;;;14.10;3.70;;;;;;;-145.69;100.00;73928.31;5116253;28;20261;-77
2022/02/27 05:26:32;;;;;;;11.93;3.60;;;;;;;-145.69;100.00;73916.38;5116354;28;20206;-78
2022/02/27 05:29:00;;;;;;;11.10;3.30;;;;;;;-145.69;100.00;73946.25;5116251;28;20258;-77
2022/02/27 05:31:26;;;;;;;14.37;3.97;;;;;;;-145.69;100.00;73934.31;5116512;28;20205;-77
2022/02/27 05:33:56;;;;;;;11.30;3.20;;;;;;;-145.69;100.00;73946.25;5116324;28;20209;-76
2022/02/27 05:36:22;;;;;;;12.53;4.17;;;;;;;-145.69;100.00;73956.19;5116154;28;20197;-77
2022/02/27 05:38:49;;;;;;;7.57;3.47;;;;;;;-145.69;100.00;73952.22;5116205;28;20201;-78
2022/02/27 05:41:15;;;;;;;8.30;3.30;;;;;;;-145.69;100.00;73958.19;5116167;28;20677;-77
2022/02/27 05:43:44;;;;;;;8.43;3.83;;;;;;;-145.69;100.00;73962.19;5106754;28;20226;-77
2022/02/27 05:46:15;;;;;;;13.13;3.40;;;;;;;-145.69;100.00;73974.13;5095753;28;20223;-77
2022/02/27 05:48:41;;;;;;;8.30;3.60;;;;;;;-145.69;100.00;73966.16;5094885;28;20194;-77
2022/02/27 05:51:11;;;;;;;10.83;3.83;;;;;;;-145.69;100.00;73966.16;5077463;28;20195;-77
2022/02/27 05:53:38;;;;;;;10.57;3.50;;;;;;;-145.69;100.00;73954.22;5075271;28;20214;-77
2022/02/27 05:56:08;;;;;;;9.30;3.07;;;;;;;-145.69;100.00;73950.22;5075021;28;20202;-77
2022/02/27 05:58:36;;;;;;;7.67;3.20;;;;;;;-145.69;100.00;73938.28;5075326;28;20289;-78
2022/02/27 06:01:03;;;;;;;11.53;3.60;;;;;;;-145.69;100.00;73922.34;5075110;28;20649;-77
2022/02/27 06:03:38;;;;;;;9.27;3.73;;;;;;;-145.69;100.00;73920.38;5074950;28;20246;-77
2022/02/27 06:06:04;;;;;;;10.63;3.40;;;;;;;-145.69;100.00;73930.31;5075053;28;20202;-77
2022/02/27 06:08:34;;;;;;;14.07;3.73;;;;;;;-145.69;100.00;73950.22;5074925;28;20194;-77
2022/02/27 06:11:01;;;;;;;12.83;3.60;;;;;;;-145.69;100.00;73946.25;5074808;28;20205;-77
2022/02/27 06:13:28;;;;;;;6.97;2.83;;;;;;;-145.69;100.00;73958.19;5087340;28;20201;-78
2022/02/27 06:15:55;;;;;;;7.93;3.53;;;;;;;-145.69;100.00;73970.16;5115524;28;20274;-78
2022/02/27 06:18:26;;;;;;;12.27;3.63;;;;;;;-145.69;100.00;73962.19;5114882;28;20700;-77
2022/02/27 06:20:54;;;;;;;6.73;3.60;;;;;;;-145.69;100.00;73958.19;5115363;28;20194;-77
2022/02/27 06:23:22;;;;;;;6.30;3.20;;;;;;;-145.69;100.00;73976.13;5115117;28;20699;-78
2022/02/27 06:25:51;;;;;;;14.60;3.60;;;;;;;-145.69;100.00;73958.19;5115407;28;20212;-78
2022/02/27 06:28:20;;;;;;;8.50;3.53;;;;;;;-145.69;100.00;73974.13;5115260;28;20212;-78
2022/02/27 06:30:47;;;;;;;6.83;3.23;;;;;;;-145.69;100.00;73946.25;5115197;28;20240;-78
2022/02/27 06:33:13;;;;;;;11.40;3.60;;;;;;;-145.69;100.00;73930.31;5115150;28;20224;-79
2022/02/27 06:35:40;;;;;;;8.10;3.10;;;;;;;-145.69;100.00;73936.28;5114870;28;20220;-77
2022/02/27 06:38:10;;;;;;;10.17;3.50;;;;;;;-145.69;100.00;73946.25;5114965;28;20667;-77
2022/02/27 06:40:38;;;;;;;6.10;2.97;;;;;;;-145.69;100.00;73950.22;5114815;28;20648;-77
2022/02/27 06:43:05;;;;;;;14.90;3.60;;;;;;;-145.69;100.00;73954.22;5108786;28;20245;-77
2022/02/27 06:45:32;;;;;;;10.43;3.93;;;;;;;-145.69;100.00;73948.25;5094357;28;20202;-77
2022/02/27 06:47:59;;;;;;;10.27;3.83;;;;;;;-145.69;100.00;73954.22;5094418;28;20578;-77
2022/02/27 06:50:26;;;;;;;7.30;3.17;;;;;;;-145.69;100.00;73938.28;5094258;28;20684;-77
2022/02/27 06:52:53;;;;;;;9.87;3.47;;;;;;;-145.69;100.00;73940.28;5094437;28;20194;-77
2022/02/27 06:55:21;;;;;;;8.60;2.83;;;;;;;-145.69;100.00;73934.31;5094419;28;20210;-77
2022/02/27 06:57:50;;;;;;;10.70;3.60;;;;;;;-145.69;100.00;73938.28;5094397;28;20301;-77
2022/02/27 07:00:22;;;;;;;11.00;3.33;;;;;;;-145.69;100.00;73930.31;5093986;28;20681;-77
2022/02/27 07:02:48;;;;;;;9.27;3.30;;;;;;;-145.69;100.00;73922.34;5093982;28;20230;-78
2022/02/27 07:05:19;;;;;;;16.13;3.00;;;;;;;-145.69;100.00;73934.31;5093695;28;20198;-77
2022/02/27 07:07:46;;;;;;;10.43;3.67;;;;;;;-145.69;100.00;73918.38;5094126;28;20595;-78
2022/02/27 07:10:14;;;;;;;9.67;3.37;;;;;;;-145.69;100.00;73906.44;5093734;28;20645;-78
2022/02/27 07:12:41;;;;;;;8.90;3.30;;;;;;;-145.69;100.00;73914.38;5095876;28;20683;-77
2022/02/27 07:15:09;;;;;;;8.63;3.40;;;;;;;-145.69;100.00;73902.44;5114279;28;20619;-78
2022/02/27 07:17:35;;;;;;;7.97;3.23;;;;;;;-145.69;100.00;73914.38;5114174;28;20233;-78
2022/02/27 07:20:02;;;;;;;12.83;3.20;;;;;;;-145.69;99.96;73898.47;5114286;28;20194;-78
2022/02/27 07:22:29;;;;;;;9.20;3.07;;;;;;;-145.69;98.33;73876.56;5113267;28;20717;-78
2022/02/27 07:25:01;;;;;;;8.60;2.80;;;;;;;-145.69;96.96;73874.56;5114227;28;20193;-78
2022/02/27 07:27:31;;;;;;;6.40;3.03;;;;;;;-145.69;97.03;73882.53;5114170;28;20210;-79
2022/02/27 07:29:59;;;;;;;10.87;2.90;;;;;;;-145.69;97.18;73872.56;5113916;28;20200;-79
2022/02/27 07:32:26;;;;;;;7.60;3.13;;;;;;;-145.69;96.53;73878.56;5114056;28;20206;-78
2022/02/27 07:34:52;;;;;;;5.67;2.73;;;;;;;-145.69;95.83;73870.59;5114058;28;20220;-79
2022/02/27 07:37:21;;;;;;;7.63;2.83;;;;;;;-145.69;96.65;73872.56;5113760;28;20201;-79
2022/02/27 07:39:49;;;;;;;7.33;2.70;;;;;;;-145.69;96.91;73868.59;5113891;28;20296;-79
2022/02/27 07:42:15;;;;;;;8.33;3.30;;;;;;;-145.69;95.61;73854.66;5112354;28;20610;-78
2022/02/27 07:44:46;;;;;;;5.90;3.10;;;;;;;-145.69;94.11;73840.72;5093216;28;20230;-79
2022/02/27 07:47:14;;;;;;;7.57;2.77;;;;;;;-145.69;92.63;73830.75;5093630;28;20557;-78
2022/02/27 07:49:41;;;;;;;11.50;2.77;;;;;;;-145.69;91.23;73818.81;5093406;28;20281;-79
2022/02/27 07:52:10;;;;;;;10.93;3.00;;;;;;;-145.69;91.88;73802.88;5086322;28;20199;-79
2022/02/27 07:54:37;;;;;;;8.23;2.43;;;;;;;-145.69;90.33;73790.94;5073214;28;20252;-78
2022/02/27 07:57:04;;;;;;;8.77;2.80;;;;;;;-145.69;90.18;73790.94;5073095;28;20217;-78
2022/02/27 07:59:30;;;;;;;7.27;2.47;;;;;;;-145.69;90.37;73779.00;5073508;28;20203;-78
2022/02/27 08:01:57;;;;;;;9.83;2.50;;;;;;;-145.69;89.02;73767.06;5073202;28;20569;-79
2022/02/27 08:04:25;;;;;;;5.07;2.37;;;;;;;-145.69;86.36;73757.09;5072949;28;20235;-79
2022/02/27 08:06:51;;;;;;;10.13;2.93;;;;;;;-145.69;86.02;73749.13;5072899;28;20688;-80
2022/02/27 08:09:18;;;;;;;9.20;2.90;;;;;;;-145.69;86.34;73745.16;5072956;28;20194;-79
2022/02/27 08:11:44;;;;;;;10.33;3.00;;;;;;;-145.69;84.53;73731.22;5072954;28;20198;-78
2022/02/27 08:14:11;;;;;;;8.80;2.80;;;;;;;-145.69;84.83;73727.22;5106071;28;20513;-79
2022/02/27 08:16:37;;;;;;;5.27;2.70;;;;;;;-145.69;84.58;73723.25;5113578;28;20209;-79
2022/02/27 08:19:04;;;;;;;8.97;2.70;;;;;;;-145.69;83.92;73711.31;5113388;28;20731;-78
2022/02/27 08:21:32;;;;;;;8.00;3.20;;;;;;;-145.69;83.73;73699.34;5113408;28;20205;-79
2022/02/27 08:23:58;;;;;;;11.73;2.73;;;;;;;-145.69;81.52;73689.41;5113218;28;20237;-79
2022/02/27 08:26:25;;;;;;;5.63;2.53;;;;;;;-145.69;81.10;73683.44;5113497;28;20205;-79
2022/02/27 08:28:51;;;;;;;7.90;2.63;;;;;;;-145.69;82.96;73671.47;5113607;28;20197;-78
2022/02/27 08:31:18;;;;;;;6.80;2.43;;;;;;;-145.69;79.31;73665.50;5113741;28;20201;-79
2022/02/27 08:33:44;;;;;;;7.50;2.33;;;;;;;-145.69;79.12;73665.50;5114706;28;20313;-78
2022/02/27 08:36:15;;;;;;;10.00;2.50;;;;;;;-145.69;79.05;73661.53;5117863;28;20201;-78
2022/02/27 08:38:43;;;;;;;7.57;2.70;;;;;;;-145.69;77.18;73651.56;5117989;28;20201;-78
2022/02/27 08:41:09;;;;;;;7.17;2.23;;;;;;;-145.69;77.28;73643.59;5118243;28;20197;-78
2022/02/27 08:43:35;;;;;;;7.80;2.33;;;;;;;-145.69;77.36;73631.66;5106151;28;20563;-79
2022/02/27 08:46:02;;;;;;;6.70;2.20;;;;;;;-145.69;76.74;73637.63;5097330;28;20201;-80
2022/02/27 08:48:30;;;;;;;6.77;2.10;;;;;;;-145.69;76.41;73621.72;5097184;28;20206;-80
2022/02/27 08:50:57;;;;;;;7.10;2.20;;;;;;;-145.69;73.30;73597.81;5097231;28;20258;-78
2022/02/27 08:53:23;;;;;;;8.10;2.30;;;;;;;-145.69;72.74;73611.75;5097187;28;20229;-80
2022/02/27 08:55:53;;;;;;;5.07;2.30;;;;;;;-145.69;72.73;73611.75;5097157;28;20202;-82
2022/02/27 08:58:19;;;;;;;6.80;2.77;;;;;;;-145.69;73.10;73607.78;5096998;28;20206;-80
2022/02/27 09:00:48;;;;;;;6.83;2.50;;;;;;;-145.69;71.90;73603.78;5098100;28;20558;-81
2022/02/27 09:03:15;;;;;;;6.03;1.87;;;;;;;-145.69;71.58;73593.84;5098016;28;20218;-81
2022/02/27 09:05:43;;;;;;;5.57;2.27;;;;;;;-145.69;71.40;73583.88;5117127;28;20228;-81
2022/02/27 09:08:09;;;;;;;6.90;2.53;;;;;;;-145.69;72.09;73565.97;5117345;28;20201;-80
2022/02/27 09:10:36;;;;;;;11.77;2.50;;;;;;;-145.69;70.58;73554.00;5117357;28;20201;-82
2022/02/27 09:13:04;;;;;;;5.67;1.97;;;;;;;-145.69;67.72;73556.00;5117147;28;20202;-81
2022/02/27 09:15:30;;;;;;;5.70;2.20;;;;;;;-145.69;69.21;73565.97;5117181;28;20569;-81
2022/02/27 09:17:57;;;;;;;8.53;1.97;;;;;;;-145.69;69.55;73544.06;5116901;28;20240;-80
2022/02/27 09:20:23;;;;;;;8.47;2.60;;;;;;;-145.69;68.19;73532.13;5116908;28;20763;-81
2022/02/27 09:22:50;;;;;;;6.70;2.30;;;;;;;-145.69;68.68;73538.09;5119377;28;20573;-81
2022/02/27 09:25:16;;;;;;;5.10;2.27;;;;;;;-145.69;67.05;73526.16;5104725;28;20228;-81
2022/02/27 09:27:43;;;;;;;4.67;1.80;;;;;;;-145.69;65.68;73538.09;5096349;28;20656;-81
2022/02/27 09:30:13;;;;;;;6.33;2.13;;;;;;;-145.69;67.25;73538.09;5096364;28;20581;-80
2022/02/27 09:32:39;;;;;;;5.30;2.27;;;;;;;-145.69;69.31;73524.16;5096245;28;20561;-81
2022/02/27 09:35:07;;;;;;;10.80;2.40;;;;;;;-145.69;68.49;73526.16;5096023;28;20609;-81
2022/02/27 09:37:33;;;;;;;4.03;2.07;;;;;;;-145.69;66.91;73518.19;5096271;28;20212;-80
2022/02/27 09:40:00;;;;;;;8.60;2.73;;;;;;;-145.69;68.57;73494.28;5096381;28;20210;-80
2022/02/27 09:42:30;;;;;;;6.13;2.57;;;;;;;-145.69;68.12;73496.28;5096133;28;20251;-81
2022/02/27 09:44:58;;;;;;;7.10;2.43;;;;;;;-145.69;67.68;73484.34;5095551;28;20576;-81
2022/02/27 09:47:27;;;;;;;4.67;2.27;;;;;;;-145.69;65.17;73472.38;5095644;28;20263;-81
2022/02/27 09:49:54;;;;;;;6.80;2.53;;;;;;;-145.69;67.00;73468.41;5095832;28;20726;-81
2022/02/27 09:52:22;;;;;;;7.07;2.30;;;;;;;-145.69;67.13;73474.38;5095876;28;20691;-81
2022/02/27 09:54:49;;;;;;;7.40;2.73;;;;;;;-145.69;63.69;73472.38;5098128;28;20190;-81
2022/02/27 09:57:16;;;;;;;5.03;2.00;;;;;;;-145.69;61.66;73460.44;5092730;28;20201;-81
2022/02/27 09:59:43;;;;;;;8.80;2.17;;;;;;;-145.69;62.96;73480.34;5095747;28;20198;-80
2022/02/27 10:02:09;;;;;;;4.87;1.80;;;;;;;-145.69;61.17;73444.50;5096677;28;20719;-80
2022/02/27 10:04:40;;;;;;;7.13;2.17;;;;;;;-145.69;57.74;73448.50;5095664;28;20237;-79
2022/02/27 10:07:10;;;;;;;4.23;1.93;;;;;;;-145.69;57.15;73450.50;5095820;28;20543;-81
2022/02/27 10:09:37;;;;;;;3.47;2.03;;;;;;;-145.69;59.19;73458.44;5095548;28;20561;-81
2022/02/27 10:12:19;;;;;;;4.43;1.93;;;;;;;-145.69;58.27;73452.47;5095658;28;20208;-81
2022/02/27 10:15:01;;;;;;;4.83;1.43;;;;;;;-145.69;56.12;73440.53;5095547;28;20229;-81
2022/02/27 10:17:33;;;;;;;4.20;2.00;;;;;;;-145.69;56.24;73428.59;5093931;28;20726;-80
2022/02/27 10:20:04;;;;;;;6.37;2.60;;;;;;;-145.69;57.40;73420.63;5096570;28;20202;-80
2022/02/27 10:22:32;;;;;;;4.17;2.30;;;;;;;-145.69;55.49;73422.63;5115256;28;20644;-81
2022/02/27 10:24:59;;;;;;;4.03;1.90;;;;;;;-145.69;56.90;73420.63;5116035;28;20225;-81
2022/02/27 10:27:40;;;;;;;6.57;2.30;;;;;;;-145.69;56.53;73436.56;5116381;28;20537;-80
2022/02/27 10:30:14;;;;;;;5.57;2.30;;;;;;;-145.69;58.56;73454.47;5116194;27;20205;-80
2022/02/27 10:32:46;;;;;;;4.97;1.80;;;;;;;-145.69;56.35;73438.53;5115886;27;20207;-80
2022/02/27 10:35:32;;;;;;;15.47;2.83;;;;;;;-145.69;55.97;73440.53;5113839;28;20660;-80
2022/02/27 10:37:59;;;;;;;6.37;1.87;;;;;;;-145.69;55.73;73416.66;5116371;28;20213;-80
2022/02/27 10:40:33;;;;;;;5.17;2.20;;;;;;;-145.69;54.73;73432.56;5116329;28;20205;-80
2022/02/27 10:43:00;;;;;;;3.80;1.90;;;;;;;-145.69;54.24;73436.56;5102228;28;20196;-78
2022/02/27 10:45:27;;;;;;;3.90;2.00;;;;;;;-145.69;56.90;73392.75;5094887;28;20321;-78
2022/02/27 10:48:02;;;;;;;5.67;1.93;;;;;;;-145.69;55.81;73380.81;5094663;28;20194;-78
2022/02/27 10:50:30;;;;;;;4.10;2.07;;;;;;;-145.69;53.63;73390.75;5095200;28;20271;-77
2022/02/27 10:52:56;;;;;;;4.70;2.00;;;;;;;-145.69;55.94;73380.81;5094808;28;20194;-78
2022/02/27 10:55:23;;;;;;;4.20;1.90;;;;;;;-145.69;55.86;73384.78;5094666;28;20209;-77
2022/02/27 10:57:51;;;;;;;4.60;2.10;;;;;;;-145.69;57.35;73380.81;5093529;28;20209;-78
2022/02/27 11:00:20;;;;;;;3.77;2.13;;;;;;;-145.69;56.52;73360.91;5094415;28;20205;-78
2022/02/27 11:02:48;;;;;;;5.37;2.77;;;;;;;-145.69;60.87;73356.91;5094488;28;20234;-77
2022/02/27 11:05:16;;;;;;;7.33;2.90;;;;;;;-145.69;61.17;73329.03;5113155;28;20225;-78
2022/02/27 11:07:46;;;;;;;4.20;2.50;;;;;;;-145.69;61.21;73358.91;5114849;28;20201;-77
2022/02/27 11:10:14;;;;;;;5.87;2.83;;;;;;;-145.69;63.81;73348.97;5114548;28;20656;-78
2022/02/27 11:12:41;;;;;;;6.77;3.03;;;;;;;-145.69;63.61;73333.03;5114874;28;20564;-77
2022/02/27 11:15:10;;;;;;;7.37;3.37;;;;;;;-145.69;63.11;73329.03;5114659;28;20666;-78